PWSweather.com
Personal Weather Stations
Station Observations
SELKIRK1
Ontario, Selkirk, ON N0A 1P0

OntarioSelkirk, ON N0A 1P0

Lat: 42.8083652, Lon: -79.94971040000001

Elevation: 583

Station Type: Acurite 5 in 1

http://gavinsurf.com

High Low Average
Temperature 81.3°F27.4°C 69.3°F20.7°C 73.9°F23.3°C
Dew Point 77.9°F25.5°C 69.0°F20.6°C 72.8°F22.7°C
Winds 17.3 mph 27.8 kmh Calm Calm 3.0 mph SW4.8 kmh SW
Wind Gusts 17.3 mph27.8 kmh -- 4.0 mph6.4 kmh
Humidity 99% 82% 97%
Pressure 31.77 in1075.9 mb 29.39 in995.3 mb -
Precipitation 2.02 in51.3 mm - -
Hour Temp Dew Point Humidity Winds Wind Gusts Pressure Precip Precip Rate Daily Precip Total
12:00 AM 73.6°F23.1°C 73.3°F22.9°C 99% 3.5 mph WSW5.6 kmh WSW 3.5 mph5.6 kmh 29.35 in993.9 mb - 0.00 in0.0 mm 0.00 in0.0 mm
12:10 AM 73.6°F23.1°C 73.3°F22.9°C 99% Calm Calm -- 29.34 in993.6 mb - 0.00 in0.0 mm 0.00 in0.0 mm
12:15 AM 73.4°F23.0°C 73.1°F22.8°C 99% Calm Calm -- 29.37 in994.6 mb - 0.00 in0.0 mm 0.00 in0.0 mm
12:20 AM 73.2°F22.9°C 72.9°F22.7°C 99% Calm Calm 1.2 mph1.9 kmh 29.37 in994.6 mb - 0.00 in0.0 mm 0.00 in0.0 mm
12:25 AM 73.2°F22.9°C 72.9°F22.7°C 99% Calm Calm 2.3 mph3.7 kmh 29.37 in994.6 mb - 0.00 in0.0 mm 0.00 in0.0 mm
12:30 AM 73.2°F22.9°C 72.9°F22.7°C 99% 1.2 mph WSW1.9 kmh WSW 1.2 mph1.9 kmh 29.39 in995.3 mb - 0.00 in0.0 mm 0.00 in0.0 mm
12:35 AM 73.2°F22.9°C 72.9°F22.7°C 99% Calm Calm -- 29.39 in995.3 mb - 0.00 in0.0 mm 0.00 in0.0 mm
12:40 AM 73.1°F22.8°C 72.8°F22.7°C 99% 2.3 mph SW3.7 kmh SW 3.5 mph5.6 kmh 29.39 in995.3 mb - 0.00 in0.0 mm 0.00 in0.0 mm
12:45 AM 73.1°F22.8°C 72.8°F22.7°C 99% Calm Calm -- 29.39 in995.3 mb - 0.00 in0.0 mm 0.00 in0.0 mm
12:50 AM 72.9°F22.7°C 72.6°F22.6°C 99% Calm Calm -- 29.39 in995.3 mb - 0.00 in0.0 mm 0.00 in0.0 mm
12:55 AM 72.9°F22.7°C 72.6°F22.6°C 99% Calm Calm -- 29.39 in995.3 mb - 0.00 in0.0 mm 0.00 in0.0 mm
01:00 AM 72.7°F22.6°C 72.4°F22.4°C 99% Calm Calm -- 29.39 in995.3 mb - 0.00 in0.0 mm 0.00 in0.0 mm
01:10 AM 73.0°F22.8°C 72.7°F22.6°C 99% Calm Calm -- 29.43 in996.6 mb - 0.00 in0.0 mm 0.00 in0.0 mm
01:15 AM 72.7°F22.6°C 72.4°F22.4°C 99% Calm Calm -- 29.48 in998.3 mb - 0.00 in0.0 mm 0.00 in0.0 mm
01:20 AM 72.5°F22.5°C 72.2°F22.3°C 99% Calm Calm -- 29.48 in998.3 mb - 0.00 in0.0 mm 0.00 in0.0 mm
01:25 AM 72.5°F22.5°C 72.2°F22.3°C 99% Calm Calm -- 29.48 in998.3 mb - 0.00 in0.0 mm 0.00 in0.0 mm
01:30 AM 72.5°F22.5°C 72.2°F22.3°C 99% Calm Calm -- 29.49 in998.6 mb - 0.00 in0.0 mm 0.00 in0.0 mm
01:35 AM 72.5°F22.5°C 72.2°F22.3°C 99% 1.2 mph NW1.9 kmh NW 1.2 mph1.9 kmh 29.49 in998.6 mb - 0.00 in0.0 mm 0.00 in0.0 mm
01:40 AM 72.7°F22.6°C 72.4°F22.4°C 99% Calm Calm -- 29.55 in1000.7 mb - 0.00 in0.0 mm 0.00 in0.0 mm
01:45 AM 72.9°F22.7°C 72.6°F22.6°C 99% Calm Calm 1.2 mph1.9 kmh 29.55 in1000.7 mb - 0.00 in0.0 mm 0.00 in0.0 mm
01:50 AM 72.9°F22.7°C 72.6°F22.6°C 99% Calm Calm 1.2 mph1.9 kmh 29.56 in1001.0 mb - 0.00 in0.0 mm 0.00 in0.0 mm
01:55 AM 72.9°F22.7°C 72.6°F22.6°C 99% Calm Calm -- 29.56 in1001.0 mb - 0.00 in0.0 mm 0.00 in0.0 mm
02:00 AM 72.7°F22.6°C 72.4°F22.4°C 99% Calm Calm -- 29.56 in1001.0 mb - 0.00 in0.0 mm 0.00 in0.0 mm
02:10 AM 73.1°F22.8°C 72.8°F22.7°C 99% 2.3 mph S3.7 kmh S 1.2 mph1.9 kmh 29.57 in1001.4 mb - 0.00 in0.0 mm 0.00 in0.0 mm
02:15 AM 72.9°F22.7°C 72.6°F22.6°C 99% Calm Calm -- 29.65 in1004.1 mb - 0.00 in0.0 mm 0.00 in0.0 mm
02:20 AM 72.7°F22.6°C 72.4°F22.4°C 99% Calm Calm -- 29.65 in1004.1 mb - 0.00 in0.0 mm 0.00 in0.0 mm
02:25 AM 72.5°F22.5°C 72.2°F22.3°C 99% Calm Calm -- 29.65 in1004.1 mb - 0.00 in0.0 mm 0.00 in0.0 mm
02:30 AM 72.3°F22.4°C 72.0°F22.2°C 99% Calm Calm -- 29.67 in1004.7 mb - 0.00 in0.0 mm 0.00 in0.0 mm
02:35 AM 72.3°F22.4°C 72.0°F22.2°C 99% Calm Calm -- 29.67 in1004.7 mb - 0.00 in0.0 mm 0.00 in0.0 mm
02:40 AM 72.2°F22.3°C 71.9°F22.2°C 99% Calm Calm -- 29.72 in1006.4 mb - 0.00 in0.0 mm 0.00 in0.0 mm
02:45 AM 72.0°F22.2°C 71.7°F22.1°C 99% Calm Calm -- 29.72 in1006.4 mb - 0.00 in0.0 mm 0.00 in0.0 mm
02:50 AM 72.0°F22.2°C 71.7°F22.1°C 99% Calm Calm 1.2 mph1.9 kmh 29.77 in1008.1 mb - 0.00 in0.0 mm 0.00 in0.0 mm
02:55 AM 72.0°F22.2°C 71.7°F22.1°C 99% Calm Calm 1.2 mph1.9 kmh 29.77 in1008.1 mb - 0.00 in0.0 mm 0.00 in0.0 mm
03:00 AM 72.0°F22.2°C 71.7°F22.1°C 99% Calm Calm -- 29.77 in1008.1 mb - 0.00 in0.0 mm 0.00 in0.0 mm
03:10 AM 72.0°F22.2°C 71.7°F22.1°C 99% 2.3 mph N3.7 kmh N 2.3 mph3.7 kmh 29.80 in1009.1 mb - 0.00 in0.0 mm 0.00 in0.0 mm
03:15 AM 71.8°F22.1°C 71.5°F21.9°C 99% Calm Calm -- 29.84 in1010.5 mb - 0.00 in0.0 mm 0.00 in0.0 mm
03:20 AM 71.8°F22.1°C 71.5°F21.9°C 99% Calm Calm -- 29.84 in1010.5 mb - 0.00 in0.0 mm 0.00 in0.0 mm
03:25 AM 71.8°F22.1°C 71.5°F21.9°C 99% Calm Calm -- 29.86 in1011.2 mb - 0.00 in0.0 mm 0.00 in0.0 mm
03:30 AM 71.6°F22.0°C 71.3°F21.8°C 99% Calm Calm -- 29.89 in1012.2 mb - 0.00 in0.0 mm 0.00 in0.0 mm
03:35 AM 71.4°F21.9°C 71.1°F21.7°C 99% Calm Calm -- 29.89 in1012.2 mb - 0.00 in0.0 mm 0.00 in0.0 mm
03:40 AM 71.3°F21.8°C 71.0°F21.7°C 99% 1.2 mph N1.9 kmh N 1.2 mph1.9 kmh 29.95 in1014.2 mb - 0.00 in0.0 mm 0.00 in0.0 mm
03:45 AM 71.1°F21.7°C 70.8°F21.6°C 99% Calm Calm 1.2 mph1.9 kmh 29.95 in1014.2 mb - 0.00 in0.0 mm 0.00 in0.0 mm
03:50 AM 71.1°F21.7°C 70.8°F21.6°C 99% 2.3 mph N3.7 kmh N 1.2 mph1.9 kmh 29.96 in1014.6 mb - 0.00 in0.0 mm 0.00 in0.0 mm
03:55 AM 71.1°F21.7°C 70.8°F21.6°C 99% Calm Calm 1.2 mph1.9 kmh 29.96 in1014.6 mb - 0.00 in0.0 mm 0.00 in0.0 mm
04:00 AM 71.3°F21.8°C 71.0°F21.7°C 99% Calm Calm 1.2 mph1.9 kmh 29.96 in1014.6 mb - 0.00 in0.0 mm 0.00 in0.0 mm
04:10 AM 71.4°F21.9°C 71.1°F21.7°C 99% 2.3 mph N3.7 kmh N 2.3 mph3.7 kmh 30.02 in1016.6 mb - 0.00 in0.0 mm 0.00 in0.0 mm
04:15 AM 71.4°F21.9°C 71.1°F21.7°C 99% 2.3 mph NNE3.7 kmh NNE 1.2 mph1.9 kmh 30.06 in1017.9 mb - 0.01 in0.3 mm 0.01 in0.3 mm
04:20 AM 71.1°F21.7°C 70.8°F21.6°C 99% 3.5 mph N5.6 kmh N 3.5 mph5.6 kmh 30.06 in1017.9 mb - 0.01 in0.3 mm 0.01 in0.3 mm
04:25 AM 71.1°F21.7°C 70.8°F21.6°C 99% 2.3 mph N3.7 kmh N 2.3 mph3.7 kmh 30.07 in1018.3 mb - 0.01 in0.3 mm 0.01 in0.3 mm
04:30 AM 71.0°F21.7°C 70.7°F21.5°C 99% 1.2 mph NNE1.9 kmh NNE 1.2 mph1.9 kmh 30.13 in1020.3 mb - 0.01 in0.3 mm 0.01 in0.3 mm
04:35 AM 70.9°F21.6°C 70.6°F21.4°C 99% Calm Calm -- 30.13 in1020.3 mb - 0.01 in0.3 mm 0.01 in0.3 mm
04:40 AM 70.9°F21.6°C 70.6°F21.4°C 99% Calm Calm -- 30.18 in1022.0 mb - 0.01 in0.3 mm 0.01 in0.3 mm
04:45 AM 70.9°F21.6°C 70.6°F21.4°C 99% Calm Calm -- 30.18 in1022.0 mb - 0.01 in0.3 mm 0.01 in0.3 mm
04:50 AM 70.9°F21.6°C 70.6°F21.4°C 99% Calm Calm -- 30.20 in1022.7 mb - 0.01 in0.3 mm 0.01 in0.3 mm
04:55 AM 70.9°F21.6°C 70.6°F21.4°C 99% Calm Calm -- 30.21 in1023.0 mb - 0.01 in0.3 mm 0.01 in0.3 mm
05:00 AM 70.9°F21.6°C 70.6°F21.4°C 99% Calm Calm -- 30.21 in1023.0 mb - 0.01 in0.3 mm 0.01 in0.3 mm
05:10 AM 70.7°F21.5°C 70.4°F21.3°C 99% Calm Calm -- 30.26 in1024.7 mb - 0.01 in0.3 mm 0.01 in0.3 mm
05:15 AM 70.7°F21.5°C 70.4°F21.3°C 99% 1.2 mph N1.9 kmh N 1.2 mph1.9 kmh 30.30 in1026.1 mb - 0.00 in0.0 mm 0.01 in0.3 mm
05:20 AM 70.7°F21.5°C 70.4°F21.3°C 99% Calm Calm -- 30.30 in1026.1 mb - 0.00 in0.0 mm 0.01 in0.3 mm
05:25 AM 70.7°F21.5°C 70.4°F21.3°C 99% Calm Calm -- 30.30 in1026.1 mb - 0.00 in0.0 mm 0.01 in0.3 mm
05:30 AM 70.9°F21.6°C 70.6°F21.4°C 99% 1.2 mph N1.9 kmh N 1.2 mph1.9 kmh 30.33 in1027.1 mb - 0.00 in0.0 mm 0.01 in0.3 mm
05:35 AM 70.9°F21.6°C 70.6°F21.4°C 99% Calm Calm -- 30.33 in1027.1 mb - 0.00 in0.0 mm 0.01 in0.3 mm
05:40 AM 70.9°F21.6°C 70.6°F21.4°C 99% Calm Calm -- 30.39 in1029.1 mb - 0.00 in0.0 mm 0.01 in0.3 mm
05:45 AM 71.1°F21.7°C 70.8°F21.6°C 99% Calm Calm -- 30.39 in1029.1 mb - 0.00 in0.0 mm 0.01 in0.3 mm
05:50 AM 71.2°F21.8°C 70.9°F21.6°C 99% Calm Calm -- 30.41 in1029.8 mb - 0.00 in0.0 mm 0.01 in0.3 mm
05:55 AM 71.1°F21.7°C 70.8°F21.6°C 99% Calm Calm -- 30.41 in1029.8 mb - 0.00 in0.0 mm 0.01 in0.3 mm
06:00 AM 71.3°F21.8°C 71.0°F21.7°C 99% Calm Calm -- 30.41 in1029.8 mb - 0.00 in0.0 mm 0.01 in0.3 mm
06:10 AM 71.6°F22.0°C 71.3°F21.8°C 99% Calm Calm -- 30.45 in1031.2 mb - 0.00 in0.0 mm 0.01 in0.3 mm
06:15 AM 72.0°F22.2°C 71.7°F22.1°C 99% Calm Calm -- 30.45 in1031.2 mb - 0.00 in0.0 mm 0.01 in0.3 mm
06:20 AM 71.6°F22.0°C 71.3°F21.8°C 99% Calm Calm -- 30.45 in1031.2 mb - 0.00 in0.0 mm 0.01 in0.3 mm
06:25 AM 71.4°F21.9°C 71.1°F21.7°C 99% Calm Calm -- 30.45 in1031.2 mb - 0.00 in0.0 mm 0.01 in0.3 mm
06:30 AM 71.4°F21.9°C 71.1°F21.7°C 99% Calm Calm -- 30.48 in1032.2 mb - 0.05 in1.3 mm 0.06 in1.5 mm
06:35 AM 71.6°F22.0°C 71.3°F21.8°C 99% Calm Calm -- 30.48 in1032.2 mb - 0.11 in2.8 mm 0.12 in3.0 mm
06:40 AM 71.8°F22.1°C 71.5°F21.9°C 99% Calm Calm -- 30.51 in1033.2 mb - 0.17 in4.3 mm 0.18 in4.6 mm
06:45 AM 72.2°F22.3°C 71.9°F22.2°C 99% Calm Calm -- 30.51 in1033.2 mb - 0.20 in5.1 mm 0.21 in5.3 mm
06:50 AM 72.3°F22.4°C 72.0°F22.2°C 99% Calm Calm -- 30.52 in1033.5 mb - 0.22 in5.6 mm 0.23 in5.8 mm
06:55 AM 72.3°F22.4°C 72.0°F22.2°C 99% 3.5 mph N5.6 kmh N 4.6 mph7.4 kmh 30.53 in1033.9 mb - 0.25 in6.4 mm 0.26 in6.6 mm
07:00 AM 72.3°F22.4°C 72.0°F22.2°C 99% 6.9 mph N11.1 kmh N 8.1 mph13.0 kmh 30.53 in1033.9 mb - 0.35 in8.9 mm 0.36 in9.1 mm
07:10 AM 72.3°F22.4°C 72.0°F22.2°C 99% 2.3 mph WNW3.7 kmh WNW 6.9 mph11.1 kmh 30.64 in1037.6 mb - 1.16 in29.5 mm 1.17 in29.7 mm
07:15 AM 71.1°F21.7°C 70.8°F21.6°C 99% 5.8 mph NNE9.3 kmh NNE 10.4 mph16.7 kmh 30.74 in1041.0 mb - 1.42 in36.1 mm 1.43 in36.3 mm
07:20 AM 69.4°F20.8°C 69.2°F20.7°C 99% 1.2 mph E1.9 kmh E 2.3 mph3.7 kmh 30.74 in1041.0 mb - 1.58 in40.1 mm 1.59 in40.4 mm
07:30 AM 69.3°F20.7°C 69.0°F20.6°C 99% Calm Calm 1.2 mph1.9 kmh 30.84 in1044.4 mb - 1.60 in40.6 mm 1.64 in41.7 mm
07:35 AM 69.5°F20.8°C 69.2°F20.7°C 99% 2.3 mph SE3.7 kmh SE 2.3 mph3.7 kmh 30.84 in1044.4 mb - 1.58 in40.1 mm 1.69 in42.9 mm
07:40 AM 69.8°F21.0°C 69.5°F20.8°C 99% 1.2 mph NW1.9 kmh NW 1.2 mph1.9 kmh 30.86 in1045.0 mb - 1.53 in38.9 mm 1.70 in43.2 mm
07:45 AM 70.0°F21.1°C 69.7°F20.9°C 99% 2.3 mph S3.7 kmh S 2.3 mph3.7 kmh 30.86 in1045.0 mb - 1.51 in38.4 mm 1.71 in43.4 mm
07:50 AM 70.0°F21.1°C 69.7°F20.9°C 99% 3.5 mph S5.6 kmh S 5.8 mph9.3 kmh 30.88 in1045.7 mb - 1.49 in37.8 mm 1.72 in43.7 mm
07:55 AM 69.8°F21.0°C 69.5°F20.8°C 99% 2.3 mph S3.7 kmh S 4.6 mph7.4 kmh 30.91 in1046.7 mb - 1.49 in37.8 mm 1.74 in44.2 mm
08:00 AM 69.8°F21.0°C 69.5°F20.8°C 99% 1.2 mph SW1.9 kmh SW 2.3 mph3.7 kmh 30.91 in1046.7 mb - 1.42 in36.1 mm 1.75 in44.5 mm
08:10 AM 69.3°F20.7°C 69.0°F20.6°C 99% Calm Calm -- 30.98 in1049.1 mb - 0.67 in17.0 mm 1.75 in44.5 mm
08:15 AM 69.5°F20.8°C 69.2°F20.7°C 99% 2.3 mph S3.7 kmh S 2.3 mph3.7 kmh 31.03 in1050.8 mb - 0.36 in9.1 mm 1.75 in44.5 mm
08:20 AM 69.6°F20.9°C 69.3°F20.7°C 99% 1.2 mph SW1.9 kmh SW 1.2 mph1.9 kmh 31.03 in1050.8 mb - 0.17 in4.3 mm 1.75 in44.5 mm
08:25 AM 69.8°F21.0°C 69.5°F20.8°C 99% 1.2 mph W1.9 kmh W 1.2 mph1.9 kmh 31.03 in1050.8 mb - 0.15 in3.8 mm 1.75 in44.5 mm
08:30 AM 69.8°F21.0°C 69.5°F20.8°C 99% Calm Calm -- 31.05 in1051.5 mb - 0.12 in3.0 mm 1.75 in44.5 mm
08:35 AM 70.2°F21.2°C 69.9°F21.1°C 99% 2.3 mph N3.7 kmh N 4.6 mph7.4 kmh 31.05 in1051.5 mb - 0.08 in2.0 mm 1.75 in44.5 mm
08:40 AM 70.2°F21.2°C 69.9°F21.1°C 99% 3.5 mph NW5.6 kmh NW 3.5 mph5.6 kmh 31.08 in1052.5 mb - 0.05 in1.3 mm 1.75 in44.5 mm
08:45 AM 70.2°F21.2°C 69.9°F21.1°C 99% 1.2 mph WSW1.9 kmh WSW 1.2 mph1.9 kmh 31.08 in1052.5 mb - 0.04 in1.0 mm 1.75 in44.5 mm
08:50 AM 70.0°F21.1°C 69.7°F20.9°C 99% Calm Calm -- 31.08 in1052.5 mb - 0.03 in0.8 mm 1.75 in44.5 mm
08:55 AM 70.4°F21.3°C 70.1°F21.2°C 99% Calm Calm -- 31.08 in1052.5 mb - 0.02 in0.5 mm 1.75 in44.5 mm
09:00 AM 70.5°F21.4°C 70.2°F21.2°C 99% Calm Calm -- 31.08 in1052.5 mb - 0.00 in0.0 mm 1.75 in44.5 mm
09:10 AM 70.9°F21.6°C 70.6°F21.4°C 99% 3.5 mph N5.6 kmh N 4.6 mph7.4 kmh 31.09 in1052.8 mb - 0.00 in0.0 mm 1.75 in44.5 mm
09:15 AM 71.7°F22.1°C 71.4°F21.9°C 99% 2.3 mph NW3.7 kmh NW 2.3 mph3.7 kmh 31.25 in1058.2 mb - 0.00 in0.0 mm 1.75 in44.5 mm
09:20 AM 72.2°F22.3°C 71.9°F22.2°C 99% Calm Calm -- 31.25 in1058.2 mb - 0.00 in0.0 mm 1.75 in44.5 mm
09:25 AM 72.1°F22.3°C 71.8°F22.1°C 99% Calm Calm -- 31.25 in1058.2 mb - 0.00 in0.0 mm 1.75 in44.5 mm
09:30 AM 72.9°F22.7°C 72.6°F22.6°C 99% Calm Calm -- 31.27 in1058.9 mb - 0.00 in0.0 mm 1.75 in44.5 mm
09:35 AM 72.9°F22.7°C 72.6°F22.6°C 99% 1.2 mph ESE1.9 kmh ESE -- 31.27 in1058.9 mb - 0.00 in0.0 mm 1.75 in44.5 mm
09:40 AM 72.7°F22.6°C 72.4°F22.4°C 99% Calm Calm 1.2 mph1.9 kmh 31.29 in1059.6 mb - 0.00 in0.0 mm 1.75 in44.5 mm
09:45 AM 73.0°F22.8°C 72.7°F22.6°C 99% Calm Calm -- 31.29 in1059.6 mb - 0.00 in0.0 mm 1.75 in44.5 mm
09:50 AM 73.2°F22.9°C 72.9°F22.7°C 99% 2.3 mph SSE3.7 kmh SSE 3.5 mph5.6 kmh 31.29 in1059.6 mb - 0.00 in0.0 mm 1.75 in44.5 mm
09:55 AM 73.6°F23.1°C 73.3°F22.9°C 99% 2.3 mph SSE3.7 kmh SSE 2.3 mph3.7 kmh 31.28 in1059.3 mb - 0.00 in0.0 mm 1.75 in44.5 mm
10:00 AM 73.8°F23.2°C 73.5°F23.1°C 99% 1.2 mph S1.9 kmh S 2.3 mph3.7 kmh 31.28 in1059.3 mb - 0.00 in0.0 mm 1.75 in44.5 mm
10:10 AM 74.0°F23.3°C 73.7°F23.2°C 99% 2.3 mph SSE3.7 kmh SSE 3.5 mph5.6 kmh 31.25 in1058.2 mb - 0.00 in0.0 mm 1.75 in44.5 mm
10:15 AM 74.5°F23.6°C 74.2°F23.4°C 99% 2.3 mph S3.7 kmh S 3.5 mph5.6 kmh 31.30 in1059.9 mb - 0.00 in0.0 mm 1.75 in44.5 mm
10:20 AM 75.0°F23.9°C 74.4°F23.6°C 98% 2.3 mph S3.7 kmh S 2.3 mph3.7 kmh 31.30 in1059.9 mb - 0.00 in0.0 mm 1.75 in44.5 mm
10:25 AM 75.0°F23.9°C 74.4°F23.6°C 98% 2.3 mph S3.7 kmh S 3.5 mph5.6 kmh 31.30 in1059.9 mb - 0.00 in0.0 mm 1.75 in44.5 mm
10:30 AM 74.9°F23.8°C 74.0°F23.3°C 97% 2.3 mph S3.7 kmh S 4.6 mph7.4 kmh 31.24 in1057.9 mb - 0.00 in0.0 mm 1.75 in44.5 mm
10:35 AM 74.9°F23.8°C 74.0°F23.3°C 97% 2.3 mph SE3.7 kmh SE 2.3 mph3.7 kmh 31.24 in1057.9 mb - 0.00 in0.0 mm 1.75 in44.5 mm
10:40 AM 74.6°F23.7°C 73.4°F23.0°C 96% 2.3 mph SE3.7 kmh SE 2.3 mph3.7 kmh 31.18 in1055.9 mb - 0.00 in0.0 mm 1.75 in44.5 mm
10:45 AM 74.5°F23.6°C 73.3°F22.9°C 96% 3.5 mph S5.6 kmh S 4.6 mph7.4 kmh 31.18 in1055.9 mb - 0.00 in0.0 mm 1.75 in44.5 mm
10:50 AM 74.3°F23.5°C 72.8°F22.7°C 95% 2.3 mph S3.7 kmh S 3.5 mph5.6 kmh 31.24 in1057.9 mb - 0.00 in0.0 mm 1.75 in44.5 mm
10:55 AM 74.3°F23.5°C 72.8°F22.7°C 95% 4.6 mph SSE7.4 kmh SSE 5.8 mph9.3 kmh 31.26 in1058.6 mb - 0.00 in0.0 mm 1.75 in44.5 mm
11:00 AM 74.3°F23.5°C 72.8°F22.7°C 95% 5.8 mph SW9.3 kmh SW 5.8 mph9.3 kmh 31.26 in1058.6 mb - 0.00 in0.0 mm 1.75 in44.5 mm
11:10 AM 74.1°F23.4°C 72.9°F22.7°C 96% 4.6 mph SW7.4 kmh SW 2.3 mph3.7 kmh 31.51 in1067.1 mb - 0.00 in0.0 mm 1.75 in44.5 mm
11:15 AM 74.0°F23.3°C 72.8°F22.7°C 96% 2.3 mph SSW3.7 kmh SSW 2.3 mph3.7 kmh 31.62 in1070.8 mb - 0.00 in0.0 mm 1.75 in44.5 mm
11:20 AM 73.8°F23.2°C 72.6°F22.6°C 96% 2.3 mph SW3.7 kmh SW 2.3 mph3.7 kmh 31.62 in1070.8 mb - 0.00 in0.0 mm 1.75 in44.5 mm
11:25 AM 74.0°F23.3°C 73.1°F22.8°C 97% 1.2 mph SSW1.9 kmh SSW 2.3 mph3.7 kmh 31.62 in1070.8 mb - 0.00 in0.0 mm 1.75 in44.5 mm
11:30 AM 74.0°F23.3°C 73.1°F22.8°C 97% 2.3 mph S3.7 kmh S 2.3 mph3.7 kmh 31.57 in1069.1 mb - 0.00 in0.0 mm 1.75 in44.5 mm
11:35 AM 74.0°F23.3°C 73.1°F22.8°C 97% 2.3 mph S3.7 kmh S 4.6 mph7.4 kmh 31.57 in1069.1 mb - 0.00 in0.0 mm 1.75 in44.5 mm
11:40 AM 74.0°F23.3°C 73.1°F22.8°C 97% 2.3 mph SW3.7 kmh SW 3.5 mph5.6 kmh 31.57 in1069.1 mb - 0.00 in0.0 mm 1.75 in44.5 mm
11:45 AM 74.1°F23.4°C 73.2°F22.9°C 97% 3.5 mph S5.6 kmh S 3.5 mph5.6 kmh 31.57 in1069.1 mb - 0.00 in0.0 mm 1.75 in44.5 mm
11:50 AM 74.4°F23.6°C 73.5°F23.1°C 97% 3.5 mph SW5.6 kmh SW 3.5 mph5.6 kmh 31.61 in1070.4 mb - 0.00 in0.0 mm 1.75 in44.5 mm
11:55 AM 74.9°F23.8°C 74.3°F23.5°C 98% 3.5 mph SSW5.6 kmh SSW 3.5 mph5.6 kmh 31.63 in1071.1 mb - 0.00 in0.0 mm 1.75 in44.5 mm
12:00 PM 74.8°F23.8°C 74.2°F23.4°C 98% 3.5 mph SW5.6 kmh SW 3.5 mph5.6 kmh 31.63 in1071.1 mb - 0.00 in0.0 mm 1.75 in44.5 mm
12:10 PM 74.4°F23.6°C 74.1°F23.4°C 99% 4.6 mph SW7.4 kmh SW 6.9 mph11.1 kmh 31.63 in1071.1 mb - 0.02 in0.5 mm 1.77 in45.0 mm
12:15 PM 74.1°F23.4°C 73.8°F23.2°C 99% 5.8 mph SSW9.3 kmh SSW 6.9 mph11.1 kmh 31.67 in1072.5 mb - 0.03 in0.8 mm 1.78 in45.2 mm
12:20 PM 74.1°F23.4°C 73.8°F23.2°C 99% 6.9 mph WSW11.1 kmh WSW 6.9 mph11.1 kmh 31.67 in1072.5 mb - 0.03 in0.8 mm 1.78 in45.2 mm
12:25 PM 73.1°F22.8°C 72.8°F22.7°C 99% 4.6 mph SSW7.4 kmh SSW 4.6 mph7.4 kmh 31.68 in1072.8 mb - 0.11 in2.8 mm 1.86 in47.2 mm
12:30 PM 72.7°F22.6°C 72.4°F22.4°C 99% 4.6 mph SSW7.4 kmh SSW 5.8 mph9.3 kmh 31.72 in1074.2 mb - 0.12 in3.0 mm 1.87 in47.5 mm
12:35 PM 72.6°F22.6°C 72.3°F22.4°C 99% 3.5 mph SSW5.6 kmh SSW 2.3 mph3.7 kmh 31.72 in1074.2 mb - 0.13 in3.3 mm 1.88 in47.8 mm
12:40 PM 72.9°F22.7°C 72.6°F22.6°C 99% 3.5 mph SW5.6 kmh SW 5.8 mph9.3 kmh 31.77 in1075.9 mb - 0.13 in3.3 mm 1.88 in47.8 mm
12:45 PM 72.3°F22.4°C 72.0°F22.2°C 99% 8.1 mph S13.0 kmh S 8.1 mph13.0 kmh 31.77 in1075.9 mb - 0.13 in3.3 mm 1.88 in47.8 mm
12:50 PM 72.3°F22.4°C 72.0°F22.2°C 99% 4.6 mph SSW7.4 kmh SSW 4.6 mph7.4 kmh 31.77 in1075.9 mb - 0.13 in3.3 mm 1.88 in47.8 mm
12:55 PM 72.7°F22.6°C 72.4°F22.4°C 99% 2.3 mph S3.7 kmh S 3.5 mph5.6 kmh 31.77 in1075.9 mb - 0.13 in3.3 mm 1.88 in47.8 mm
01:00 PM 72.9°F22.7°C 72.6°F22.6°C 99% 2.3 mph S3.7 kmh S 2.3 mph3.7 kmh 31.77 in1075.9 mb - 0.13 in3.3 mm 1.88 in47.8 mm
01:10 PM 73.4°F23.0°C 73.1°F22.8°C 99% 1.2 mph SSW1.9 kmh SSW 2.3 mph3.7 kmh 31.71 in1073.8 mb - 0.11 in2.8 mm 1.88 in47.8 mm
01:15 PM 73.5°F23.1°C 73.2°F22.9°C 99% 1.2 mph SW1.9 kmh SW 2.3 mph3.7 kmh 31.50 in1066.7 mb - 0.10 in2.5 mm 1.88 in47.8 mm
01:20 PM 73.4°F23.0°C 73.1°F22.8°C 99% 2.3 mph S3.7 kmh S 2.3 mph3.7 kmh 31.50 in1066.7 mb - 0.10 in2.5 mm 1.88 in47.8 mm
01:25 PM 73.4°F23.0°C 73.1°F22.8°C 99% 1.2 mph NW1.9 kmh NW 1.2 mph1.9 kmh 31.50 in1066.7 mb - 0.05 in1.3 mm 1.89 in48.0 mm
01:30 PM 73.7°F23.2°C 73.4°F23.0°C 99% 1.2 mph SSW1.9 kmh SSW 2.3 mph3.7 kmh 31.36 in1062.0 mb - 0.02 in0.5 mm 1.89 in48.0 mm
01:35 PM 74.3°F23.5°C 74.0°F23.3°C 99% 3.5 mph SW5.6 kmh SW 5.8 mph9.3 kmh 31.36 in1062.0 mb - 0.01 in0.3 mm 1.89 in48.0 mm
01:40 PM 75.4°F24.1°C 75.1°F23.9°C 99% 6.9 mph SSW11.1 kmh SSW 10.4 mph16.7 kmh 31.28 in1059.3 mb - 0.01 in0.3 mm 1.89 in48.0 mm
01:45 PM 76.1°F24.5°C 75.8°F24.3°C 99% 10.4 mph SW16.7 kmh SW 11.5 mph18.5 kmh 31.28 in1059.3 mb - 0.01 in0.3 mm 1.89 in48.0 mm
01:50 PM 76.7°F24.8°C 76.1°F24.5°C 98% 11.5 mph WSW18.5 kmh WSW 11.5 mph18.5 kmh 31.24 in1057.9 mb - 0.01 in0.3 mm 1.89 in48.0 mm
01:55 PM 77.0°F25.0°C 76.4°F24.7°C 98% 12.7 mph SW20.4 kmh SW 17.3 mph27.8 kmh 31.16 in1055.2 mb - 0.01 in0.3 mm 1.89 in48.0 mm
02:00 PM 77.2°F25.1°C 76.3°F24.6°C 97% 13.8 mph SSW22.2 kmh SSW 16.1 mph25.9 kmh 31.16 in1055.2 mb - 0.01 in0.3 mm 1.89 in48.0 mm
02:10 PM 77.3°F25.2°C 76.1°F24.5°C 96% 15.0 mph WSW24.1 kmh WSW 17.3 mph27.8 kmh 31.02 in1050.5 mb - 0.01 in0.3 mm 1.89 in48.0 mm
02:15 PM 77.4°F25.2°C 76.1°F24.5°C 96% 17.3 mph WSW27.8 kmh WSW 17.3 mph27.8 kmh 30.90 in1046.4 mb - 0.01 in0.3 mm 1.89 in48.0 mm
02:20 PM 77.6°F25.3°C 76.0°F24.4°C 95% 16.1 mph S25.9 kmh S 16.1 mph25.9 kmh 30.90 in1046.4 mb - 0.01 in0.3 mm 1.89 in48.0 mm
02:25 PM 77.7°F25.4°C 76.1°F24.5°C 95% 12.7 mph SW20.4 kmh SW 13.8 mph22.2 kmh 30.90 in1046.4 mb - 0.00 in0.0 mm 1.89 in48.0 mm
02:30 PM 77.7°F25.4°C 76.4°F24.7°C 96% 11.5 mph WSW18.5 kmh WSW 11.5 mph18.5 kmh 30.80 in1043.0 mb - 0.00 in0.0 mm 1.89 in48.0 mm
02:35 PM 78.0°F25.6°C 76.1°F24.5°C 94% 8.1 mph WSW13.0 kmh WSW 10.4 mph16.7 kmh 30.80 in1043.0 mb - 0.00 in0.0 mm 1.89 in48.0 mm
02:40 PM 78.6°F25.9°C 76.4°F24.7°C 93% 10.4 mph SW16.7 kmh SW 10.4 mph16.7 kmh 30.68 in1038.9 mb - 0.00 in0.0 mm 1.89 in48.0 mm
02:45 PM 78.6°F25.9°C 76.4°F24.7°C 93% 9.2 mph SW14.8 kmh SW 11.5 mph18.5 kmh 30.68 in1038.9 mb - 0.00 in0.0 mm 1.89 in48.0 mm
02:50 PM 78.6°F25.9°C 76.4°F24.7°C 93% 9.2 mph SW14.8 kmh SW 11.5 mph18.5 kmh 30.66 in1038.3 mb - 0.00 in0.0 mm 1.89 in48.0 mm
02:55 PM 78.6°F25.9°C 76.7°F24.8°C 94% 9.2 mph WSW14.8 kmh WSW 10.4 mph16.7 kmh 30.56 in1034.9 mb - 0.00 in0.0 mm 1.89 in48.0 mm
03:00 PM 78.6°F25.9°C 76.4°F24.7°C 93% 6.9 mph SW11.1 kmh SW 9.2 mph14.8 kmh 30.56 in1034.9 mb - 0.00 in0.0 mm 1.89 in48.0 mm
03:10 PM 78.7°F25.9°C 76.9°F24.9°C 94% 6.9 mph SW11.1 kmh SW 10.4 mph16.7 kmh 30.42 in1030.1 mb - 0.00 in0.0 mm 1.89 in48.0 mm
03:15 PM 78.8°F26.0°C 76.6°F24.8°C 93% 6.9 mph WSW11.1 kmh WSW 12.7 mph20.4 kmh 30.29 in1025.7 mb - 0.00 in0.0 mm 1.89 in48.0 mm
03:20 PM 78.9°F26.1°C 76.7°F24.8°C 93% 8.1 mph SW13.0 kmh SW 11.5 mph18.5 kmh 30.29 in1025.7 mb - 0.00 in0.0 mm 1.89 in48.0 mm
03:25 PM 78.3°F25.7°C 76.1°F24.5°C 93% 6.9 mph SW11.1 kmh SW 8.1 mph13.0 kmh 30.29 in1025.7 mb - 0.00 in0.0 mm 1.89 in48.0 mm
03:30 PM 78.3°F25.7°C 76.4°F24.7°C 94% 6.9 mph SW11.1 kmh SW 9.2 mph14.8 kmh 30.19 in1022.4 mb - 0.00 in0.0 mm 1.89 in48.0 mm
03:35 PM 77.7°F25.4°C 76.1°F24.5°C 95% 6.9 mph SW11.1 kmh SW 8.1 mph13.0 kmh 30.19 in1022.4 mb - 0.00 in0.0 mm 1.89 in48.0 mm
03:40 PM 78.0°F25.6°C 76.5°F24.7°C 95% 6.9 mph S11.1 kmh S 6.9 mph11.1 kmh 30.20 in1022.7 mb - 0.00 in0.0 mm 1.89 in48.0 mm
03:45 PM 78.1°F25.6°C 76.2°F24.6°C 94% 5.8 mph SW9.3 kmh SW 5.8 mph9.3 kmh 30.20 in1022.7 mb - 0.00 in0.0 mm 1.89 in48.0 mm
03:50 PM 79.1°F26.2°C 76.9°F24.9°C 93% 6.9 mph S11.1 kmh S 10.4 mph16.7 kmh 30.15 in1021.0 mb - 0.00 in0.0 mm 1.89 in48.0 mm
03:55 PM 79.2°F26.2°C 77.0°F25.0°C 93% 6.9 mph S11.1 kmh S 6.9 mph11.1 kmh 30.14 in1020.7 mb - 0.00 in0.0 mm 1.89 in48.0 mm
04:00 PM 79.9°F26.6°C 77.7°F25.4°C 93% 6.9 mph WSW11.1 kmh WSW 8.1 mph13.0 kmh 30.14 in1020.7 mb - 0.00 in0.0 mm 1.89 in48.0 mm
04:10 PM 79.3°F26.3°C 77.1°F25.1°C 93% 9.2 mph SW14.8 kmh SW 12.7 mph20.4 kmh 29.99 in1015.6 mb - 0.00 in0.0 mm 1.89 in48.0 mm
04:15 PM 78.8°F26.0°C 76.9°F24.9°C 94% 9.2 mph WSW14.8 kmh WSW 10.4 mph16.7 kmh 29.86 in1011.2 mb - 0.00 in0.0 mm 1.89 in48.0 mm
04:20 PM 78.9°F26.1°C 77.0°F25.0°C 94% 10.4 mph SW16.7 kmh SW 10.4 mph16.7 kmh 29.86 in1011.2 mb - 0.00 in0.0 mm 1.89 in48.0 mm
04:25 PM 78.4°F25.8°C 76.8°F24.9°C 95% 10.4 mph SW16.7 kmh SW 12.7 mph20.4 kmh 29.86 in1011.2 mb - 0.00 in0.0 mm 1.89 in48.0 mm
04:30 PM 77.8°F25.4°C 76.2°F24.6°C 95% 10.4 mph SW16.7 kmh SW 10.4 mph16.7 kmh 29.77 in1008.1 mb - 0.00 in0.0 mm 1.89 in48.0 mm
04:35 PM 77.4°F25.2°C 76.2°F24.6°C 96% 11.5 mph SSW18.5 kmh SSW 13.8 mph22.2 kmh 29.77 in1008.1 mb - 0.00 in0.0 mm 1.89 in48.0 mm
04:40 PM 77.2°F25.1°C 76.0°F24.4°C 96% 10.4 mph SSW16.7 kmh SSW 11.5 mph18.5 kmh 29.74 in1007.1 mb - 0.00 in0.0 mm 1.89 in48.0 mm
04:45 PM 77.3°F25.2°C 76.0°F24.4°C 96% 5.8 mph SW9.3 kmh SW 6.9 mph11.1 kmh 29.74 in1007.1 mb - 0.00 in0.0 mm 1.89 in48.0 mm
04:50 PM 78.0°F25.6°C 76.5°F24.7°C 95% 5.8 mph S9.3 kmh S 6.9 mph11.1 kmh 29.76 in1007.8 mb - 0.00 in0.0 mm 1.89 in48.0 mm
04:55 PM 78.0°F25.6°C 76.5°F24.7°C 95% 6.9 mph SSW11.1 kmh SSW 8.1 mph13.0 kmh 29.77 in1008.1 mb - 0.00 in0.0 mm 1.89 in48.0 mm
05:00 PM 77.6°F25.3°C 76.3°F24.6°C 96% 6.9 mph SW11.1 kmh SW 9.2 mph14.8 kmh 29.77 in1008.1 mb - 0.00 in0.0 mm 1.89 in48.0 mm
05:10 PM 77.7°F25.4°C 76.4°F24.7°C 96% 4.6 mph SSW7.4 kmh SSW 5.8 mph9.3 kmh 29.87 in1011.5 mb - 0.00 in0.0 mm 1.89 in48.0 mm
05:15 PM 77.6°F25.3°C 76.7°F24.8°C 97% 3.5 mph SW5.6 kmh SW 4.6 mph7.4 kmh 29.98 in1015.2 mb - 0.00 in0.0 mm 1.89 in48.0 mm
05:20 PM 79.0°F26.1°C 77.4°F25.2°C 95% 2.3 mph SSW3.7 kmh SSW 6.9 mph11.1 kmh 29.98 in1015.2 mb - 0.00 in0.0 mm 1.89 in48.0 mm
05:25 PM 80.4°F26.9°C 77.5°F25.3°C 91% 4.6 mph W7.4 kmh W 5.8 mph9.3 kmh 29.98 in1015.2 mb - 0.00 in0.0 mm 1.89 in48.0 mm
05:30 PM 80.2°F26.8°C 77.6°F25.3°C 92% 1.2 mph N1.9 kmh N 2.3 mph3.7 kmh 29.95 in1014.2 mb - 0.00 in0.0 mm 1.89 in48.0 mm
05:35 PM 80.1°F26.7°C 77.9°F25.5°C 93% 2.3 mph NNE3.7 kmh NNE 2.3 mph3.7 kmh 29.95 in1014.2 mb - 0.00 in0.0 mm 1.89 in48.0 mm
05:40 PM 79.5°F26.4°C 77.3°F25.2°C 93% 3.5 mph WNW5.6 kmh WNW 3.5 mph5.6 kmh 29.86 in1011.2 mb - 0.00 in0.0 mm 1.89 in48.0 mm
05:45 PM 80.9°F27.2°C 77.3°F25.2°C 89% 3.5 mph NW5.6 kmh NW 6.9 mph11.1 kmh 29.86 in1011.2 mb - 0.00 in0.0 mm 1.89 in48.0 mm
05:50 PM 81.3°F27.4°C 76.7°F24.8°C 86% 5.8 mph NNW9.3 kmh NNW 8.1 mph13.0 kmh 29.83 in1010.2 mb - 0.00 in0.0 mm 1.89 in48.0 mm
05:55 PM 80.5°F26.9°C 76.0°F24.4°C 86% 4.6 mph NW7.4 kmh NW 5.8 mph9.3 kmh 29.80 in1009.1 mb - 0.00 in0.0 mm 1.89 in48.0 mm
06:00 PM 80.1°F26.7°C 75.5°F24.2°C 86% 5.8 mph N9.3 kmh N 9.2 mph14.8 kmh 29.80 in1009.1 mb - 0.00 in0.0 mm 1.89 in48.0 mm
06:10 PM 79.7°F26.5°C 74.4°F23.6°C 84% 5.8 mph NNW9.3 kmh NNW 6.9 mph11.1 kmh 29.78 in1008.5 mb - 0.00 in0.0 mm 1.89 in48.0 mm
06:15 PM 80.3°F26.8°C 75.0°F23.9°C 84% 5.8 mph NNW9.3 kmh NNW 5.8 mph9.3 kmh 29.87 in1011.5 mb - 0.00 in0.0 mm 1.89 in48.0 mm
06:20 PM 81.0°F27.2°C 75.0°F23.9°C 82% 5.8 mph NNW9.3 kmh NNW 8.1 mph13.0 kmh 29.87 in1011.5 mb - 0.00 in0.0 mm 1.89 in48.0 mm
06:25 PM 81.0°F27.2°C 75.3°F24.1°C 83% 5.8 mph NW9.3 kmh NW 5.8 mph9.3 kmh 29.87 in1011.5 mb - 0.00 in0.0 mm 1.89 in48.0 mm
06:30 PM 81.2°F27.3°C 75.2°F24.0°C 82% 5.8 mph NNW9.3 kmh NNW 6.9 mph11.1 kmh 29.93 in1013.5 mb - 0.00 in0.0 mm 1.89 in48.0 mm
06:35 PM 79.8°F26.6°C 74.9°F23.8°C 85% 5.8 mph NW9.3 kmh NW 5.8 mph9.3 kmh 29.93 in1013.5 mb - 0.00 in0.0 mm 1.89 in48.0 mm
06:40 PM 80.2°F26.8°C 75.3°F24.1°C 85% 4.6 mph NNW7.4 kmh NNW 6.9 mph11.1 kmh 29.84 in1010.5 mb - 0.00 in0.0 mm 1.89 in48.0 mm
06:45 PM 80.4°F26.9°C 75.1°F23.9°C 84% 4.6 mph NW7.4 kmh NW 4.6 mph7.4 kmh 29.84 in1010.5 mb - 0.00 in0.0 mm 1.89 in48.0 mm
06:50 PM 80.8°F27.1°C 75.1°F23.9°C 83% 4.6 mph NW7.4 kmh NW 5.8 mph9.3 kmh 29.85 in1010.8 mb - 0.00 in0.0 mm 1.89 in48.0 mm
06:55 PM 79.9°F26.6°C 74.6°F23.7°C 84% 5.8 mph NNW9.3 kmh NNW 9.2 mph14.8 kmh 29.86 in1011.2 mb - 0.00 in0.0 mm 1.89 in48.0 mm
07:00 PM 79.7°F26.5°C 74.8°F23.8°C 85% 4.6 mph N7.4 kmh N 5.8 mph9.3 kmh 29.86 in1011.2 mb - 0.00 in0.0 mm 1.89 in48.0 mm
07:10 PM 79.5°F26.4°C 74.6°F23.7°C 85% 5.8 mph N9.3 kmh N 5.8 mph9.3 kmh 29.86 in1011.2 mb - 0.00 in0.0 mm 1.89 in48.0 mm
07:15 PM 79.2°F26.2°C 75.0°F23.9°C 87% 3.5 mph NW5.6 kmh NW 5.8 mph9.3 kmh 29.95 in1014.2 mb - 0.00 in0.0 mm 1.89 in48.0 mm
07:20 PM 79.2°F26.2°C 75.0°F23.9°C 87% 3.5 mph N5.6 kmh N 5.8 mph9.3 kmh 29.95 in1014.2 mb - 0.00 in0.0 mm 1.89 in48.0 mm
07:25 PM 79.0°F26.1°C 75.2°F24.0°C 88% 4.6 mph NNW7.4 kmh NNW 4.6 mph7.4 kmh 29.95 in1014.2 mb - 0.00 in0.0 mm 1.89 in48.0 mm
07:30 PM 78.9°F26.1°C 75.1°F23.9°C 88% 2.3 mph N3.7 kmh N 2.3 mph3.7 kmh 29.99 in1015.6 mb - 0.00 in0.0 mm 1.89 in48.0 mm
07:35 PM 78.6°F25.9°C 75.1°F23.9°C 89% 3.5 mph NNW5.6 kmh NNW 3.5 mph5.6 kmh 29.99 in1015.6 mb - 0.00 in0.0 mm 1.89 in48.0 mm
07:40 PM 78.3°F25.7°C 74.4°F23.6°C 88% 3.5 mph N5.6 kmh N 4.6 mph7.4 kmh 30.05 in1017.6 mb - 0.00 in0.0 mm 1.89 in48.0 mm
07:45 PM 77.9°F25.5°C 74.0°F23.3°C 88% 2.3 mph WNW3.7 kmh WNW 3.5 mph5.6 kmh 30.05 in1017.6 mb - 0.00 in0.0 mm 1.89 in48.0 mm
07:50 PM 77.6°F25.3°C 74.1°F23.4°C 89% 2.3 mph N3.7 kmh N 2.3 mph3.7 kmh 30.07 in1018.3 mb - 0.00 in0.0 mm 1.89 in48.0 mm
07:55 PM 77.3°F25.2°C 74.1°F23.4°C 90% 2.3 mph WNW3.7 kmh WNW 2.3 mph3.7 kmh 30.11 in1019.6 mb - 0.00 in0.0 mm 1.89 in48.0 mm
08:00 PM 77.0°F25.0°C 73.9°F23.3°C 90% 1.2 mph NNW1.9 kmh NNW 2.3 mph3.7 kmh 30.11 in1019.6 mb - 0.00 in0.0 mm 1.89 in48.0 mm
08:10 PM 76.5°F24.7°C 74.0°F23.3°C 92% 2.3 mph NW3.7 kmh NW 1.2 mph1.9 kmh 30.12 in1020.0 mb - 0.00 in0.0 mm 1.89 in48.0 mm
08:15 PM 76.1°F24.5°C 73.9°F23.3°C 93% 2.3 mph N3.7 kmh N 3.5 mph5.6 kmh 30.18 in1022.0 mb - 0.00 in0.0 mm 1.89 in48.0 mm
08:20 PM 75.8°F24.3°C 73.9°F23.3°C 94% 1.2 mph W1.9 kmh W 1.2 mph1.9 kmh 30.18 in1022.0 mb - 0.00 in0.0 mm 1.89 in48.0 mm
08:25 PM 75.4°F24.1°C 73.6°F23.1°C 94% 2.3 mph WNW3.7 kmh WNW 2.3 mph3.7 kmh 30.18 in1022.0 mb - 0.00 in0.0 mm 1.89 in48.0 mm
08:30 PM 75.4°F24.1°C 73.5°F23.1°C 94% 2.3 mph N3.7 kmh N 2.3 mph3.7 kmh 30.18 in1022.0 mb - 0.00 in0.0 mm 1.89 in48.0 mm
08:35 PM 75.2°F24.0°C 73.6°F23.1°C 95% 2.3 mph NNW3.7 kmh NNW 2.3 mph3.7 kmh 30.18 in1022.0 mb - 0.00 in0.0 mm 1.89 in48.0 mm
08:40 PM 75.0°F23.9°C 73.5°F23.1°C 95% 1.2 mph WNW1.9 kmh WNW 2.3 mph3.7 kmh 30.16 in1021.3 mb - 0.00 in0.0 mm 1.89 in48.0 mm
08:45 PM 74.9°F23.8°C 73.4°F23.0°C 95% Calm Calm -- 30.16 in1021.3 mb - 0.00 in0.0 mm 1.89 in48.0 mm
08:50 PM 74.8°F23.8°C 73.2°F22.9°C 95% 1.2 mph NW1.9 kmh NW 1.2 mph1.9 kmh 30.17 in1021.7 mb - 0.00 in0.0 mm 1.89 in48.0 mm
08:55 PM 74.5°F23.6°C 73.3°F22.9°C 96% 2.3 mph NW3.7 kmh NW 1.2 mph1.9 kmh 30.18 in1022.0 mb - 0.00 in0.0 mm 1.89 in48.0 mm
09:00 PM 74.5°F23.6°C 73.3°F22.9°C 96% 1.2 mph WNW1.9 kmh WNW 2.3 mph3.7 kmh 30.18 in1022.0 mb - 0.00 in0.0 mm 1.89 in48.0 mm
09:10 PM 74.0°F23.3°C 73.7°F23.2°C 99% 2.3 mph N3.7 kmh N 4.6 mph7.4 kmh 30.25 in1024.4 mb - 0.03 in0.8 mm 1.92 in48.8 mm
09:15 PM 73.7°F23.2°C 73.4°F23.0°C 99% 1.2 mph W1.9 kmh W 2.3 mph3.7 kmh 30.32 in1026.8 mb - 0.13 in3.3 mm 2.02 in51.3 mm
09:20 PM 73.4°F23.0°C 73.1°F22.8°C 99% 1.2 mph N1.9 kmh N 1.2 mph1.9 kmh 30.32 in1026.8 mb - 0.13 in3.3 mm 2.02 in51.3 mm
09:25 PM 73.2°F22.9°C 72.9°F22.7°C 99% Calm Calm -- 30.32 in1026.8 mb - 0.13 in3.3 mm 2.02 in51.3 mm
09:30 PM 72.9°F22.7°C 72.6°F22.6°C 99% 1.2 mph N1.9 kmh N 2.3 mph3.7 kmh 30.35 in1027.8 mb - 0.13 in3.3 mm 2.02 in51.3 mm
09:35 PM 72.9°F22.7°C 72.6°F22.6°C 99% 2.3 mph N3.7 kmh N 2.3 mph3.7 kmh 30.35 in1027.8 mb - 0.13 in3.3 mm 2.02 in51.3 mm
09:40 PM 72.7°F22.6°C 72.4°F22.4°C 99% 1.2 mph N1.9 kmh N 2.3 mph3.7 kmh 30.08 in1018.6 mb - 0.13 in3.3 mm 2.02 in51.3 mm
09:45 PM 72.7°F22.6°C 72.4°F22.4°C 99% 1.2 mph N1.9 kmh N 2.3 mph3.7 kmh 30.04 in1017.3 mb - 0.13 in3.3 mm 2.02 in51.3 mm
09:50 PM 72.5°F22.5°C 72.2°F22.3°C 99% 2.3 mph N3.7 kmh N 4.6 mph7.4 kmh 29.98 in1015.2 mb - 0.13 in3.3 mm 2.02 in51.3 mm
09:55 PM 72.5°F22.5°C 72.2°F22.3°C 99% 2.3 mph N3.7 kmh N 2.3 mph3.7 kmh 29.98 in1015.2 mb - 0.13 in3.3 mm 2.02 in51.3 mm
10:00 PM 72.3°F22.4°C 72.0°F22.2°C 99% 2.3 mph N3.7 kmh N 2.3 mph3.7 kmh 29.98 in1015.2 mb - 0.13 in3.3 mm 2.02 in51.3 mm
10:10 PM 72.0°F22.2°C 71.7°F22.1°C 99% 2.3 mph N3.7 kmh N 3.5 mph5.6 kmh 29.98 in1015.2 mb - 0.10 in2.5 mm 2.02 in51.3 mm
10:15 PM 71.8°F22.1°C 71.5°F21.9°C 99% 2.3 mph N3.7 kmh N 2.3 mph3.7 kmh 29.97 in1014.9 mb - 0.00 in0.0 mm 2.02 in51.3 mm
10:20 PM 71.8°F22.1°C 71.5°F21.9°C 99% 2.3 mph N3.7 kmh N 2.3 mph3.7 kmh 29.97 in1014.9 mb - 0.00 in0.0 mm 2.02 in51.3 mm
10:25 PM 71.6°F22.0°C 71.3°F21.8°C 99% 2.3 mph N3.7 kmh N 3.5 mph5.6 kmh 29.97 in1014.9 mb - 0.00 in0.0 mm 2.02 in51.3 mm
10:30 PM 71.6°F22.0°C 71.3°F21.8°C 99% 2.3 mph N3.7 kmh N 2.3 mph3.7 kmh 29.98 in1015.2 mb - 0.00 in0.0 mm 2.02 in51.3 mm
10:35 PM 71.6°F22.0°C 71.3°F21.8°C 99% 2.3 mph N3.7 kmh N 4.6 mph7.4 kmh 29.98 in1015.2 mb - 0.00 in0.0 mm 2.02 in51.3 mm
10:40 PM 71.6°F22.0°C 71.3°F21.8°C 99% 2.3 mph N3.7 kmh N 3.5 mph5.6 kmh 30.02 in1016.6 mb - 0.00 in0.0 mm 2.02 in51.3 mm
10:45 PM 71.6°F22.0°C 71.3°F21.8°C 99% 3.5 mph N5.6 kmh N 4.6 mph7.4 kmh 30.02 in1016.6 mb - 0.00 in0.0 mm 2.02 in51.3 mm
10:50 PM 71.5°F21.9°C 71.2°F21.8°C 99% 3.5 mph N5.6 kmh N 3.5 mph5.6 kmh 30.05 in1017.6 mb - 0.00 in0.0 mm 2.02 in51.3 mm
10:55 PM 71.4°F21.9°C 71.1°F21.7°C 99% 4.6 mph N7.4 kmh N 4.6 mph7.4 kmh 30.05 in1017.6 mb - 0.00 in0.0 mm 2.02 in51.3 mm
11:00 PM 71.4°F21.9°C 71.1°F21.7°C 99% 4.6 mph N7.4 kmh N 5.8 mph9.3 kmh 30.05 in1017.6 mb - 0.00 in0.0 mm 2.02 in51.3 mm
11:10 PM 71.4°F21.9°C 71.1°F21.7°C 99% 4.6 mph N7.4 kmh N 4.6 mph7.4 kmh 30.12 in1020.0 mb - 0.00 in0.0 mm 2.02 in51.3 mm
11:15 PM 71.3°F21.8°C 71.0°F21.7°C 99% 4.6 mph N7.4 kmh N 4.6 mph7.4 kmh 30.24 in1024.0 mb - 0.00 in0.0 mm 2.02 in51.3 mm
11:20 PM 71.3°F21.8°C 71.0°F21.7°C 99% 3.5 mph N5.6 kmh N 3.5 mph5.6 kmh 30.24 in1024.0 mb - 0.00 in0.0 mm 2.02 in51.3 mm
11:25 PM 70.9°F21.6°C 70.6°F21.4°C 99% 3.5 mph N5.6 kmh N 3.5 mph5.6 kmh 30.24 in1024.0 mb - 0.00 in0.0 mm 2.02 in51.3 mm
11:30 PM 70.9°F21.6°C 70.6°F21.4°C 99% 3.5 mph N5.6 kmh N 4.6 mph7.4 kmh 30.32 in1026.8 mb - 0.00 in0.0 mm 2.02 in51.3 mm
11:35 PM 70.9°F21.6°C 70.6°F21.4°C 99% 4.6 mph N7.4 kmh N 5.8 mph9.3 kmh 30.32 in1026.8 mb - 0.00 in0.0 mm 2.02 in51.3 mm
11:40 PM 70.8°F21.6°C 70.5°F21.4°C 99% 4.6 mph N7.4 kmh N 5.8 mph9.3 kmh 30.41 in1029.8 mb - 0.00 in0.0 mm 2.02 in51.3 mm
11:45 PM 70.7°F21.5°C 70.4°F21.3°C 99% 4.6 mph N7.4 kmh N 5.8 mph9.3 kmh 30.41 in1029.8 mb - 0.00 in0.0 mm 2.02 in51.3 mm
11:50 PM 70.5°F21.4°C 70.2°F21.2°C 99% 5.8 mph N9.3 kmh N 5.8 mph9.3 kmh 30.46 in1031.5 mb - 0.00 in0.0 mm 2.02 in51.3 mm
11:55 PM 70.4°F21.3°C 70.1°F21.2°C 99% 4.6 mph N7.4 kmh N 4.6 mph7.4 kmh 30.47 in1031.8 mb - 0.00 in0.0 mm 2.02 in51.3 mm